createdAt,value
2019-03-29T00:05:00.534Z,88.70
2019-03-29T00:10:06.601Z,88.30
2019-03-29T00:15:11.656Z,88.40
2019-03-29T00:20:16.689Z,88.40
2019-03-29T00:25:21.652Z,88.10
2019-03-29T00:30:26.394Z,87.20
2019-03-29T00:35:31.120Z,87.40
2019-03-29T00:40:36.189Z,87.20
2019-03-29T00:45:40.930Z,87.50
2019-03-29T00:50:45.982Z,87.80
2019-03-29T00:55:50.719Z,87.60
2019-03-29T01:00:55.411Z,88.30
2019-03-29T01:06:00.281Z,88.50
2019-03-29T01:11:05.560Z,88.60
2019-03-29T01:16:10.304Z,89.10
2019-03-29T01:21:15.137Z,88.90
2019-03-29T01:26:20.093Z,88.40
2019-03-29T01:31:25.143Z,88.80
2019-03-29T01:36:29.886Z,89.00
2019-03-29T01:41:34.602Z,89.40
2019-03-29T01:46:39.654Z,89.30
2019-03-29T01:51:44.749Z,88.50
2019-03-29T01:56:49.468Z,88.70
2019-03-29T02:01:54.950Z,88.60
2019-03-29T02:06:59.851Z,88.50
2019-03-29T02:12:05.231Z,87.50
2019-03-29T02:17:10.050Z,87.60
2019-03-29T02:22:15.947Z,87.70
2019-03-29T02:27:20.763Z,88.20
2019-03-29T02:32:25.775Z,87.40
2019-03-29T02:37:30.787Z,87.10
2019-03-29T02:42:35.813Z,86.90
2019-03-29T02:47:40.895Z,86.90
2019-03-29T02:52:45.936Z,86.40
2019-03-29T02:57:50.991Z,86.60
2019-03-29T03:02:55.723Z,86.40
2019-03-29T03:08:00.545Z,86.50
2019-03-29T03:13:05.541Z,87.00
2019-03-29T03:18:10.339Z,86.80
2019-03-29T03:23:15.319Z,86.00
2019-03-29T03:28:20.360Z,86.30
2019-03-29T03:33:25.188Z,85.90
2019-03-29T03:38:29.925Z,86.20
2019-03-29T03:43:34.896Z,86.80
2019-03-29T03:48:40.862Z,87.00
2019-03-29T03:53:46.919Z,87.40
2019-03-29T03:58:52.805Z,87.90
2019-03-29T04:03:57.885Z,88.50
2019-03-29T04:09:02.878Z,88.80
2019-03-29T04:14:07.874Z,88.90
2019-03-29T04:19:12.771Z,88.20
2019-03-29T04:24:17.741Z,89.00
2019-03-29T04:29:22.790Z,88.30
2019-03-29T04:34:27.610Z,88.20
2019-03-29T04:39:32.585Z,87.70
2019-03-29T04:44:37.331Z,88.00
2019-03-29T04:49:42.078Z,88.00
2019-03-29T04:54:46.808Z,87.50
2019-03-29T04:59:51.526Z,87.60
2019-03-29T05:04:56.273Z,86.70
2019-03-29T05:10:01.035Z,86.20
2019-03-29T05:15:06.507Z,86.20
2019-03-29T05:20:11.441Z,86.50
2019-03-29T05:25:16.488Z,85.70
2019-03-29T05:30:21.543Z,86.20
2019-03-29T05:35:26.934Z,85.00
2019-03-29T05:40:35.121Z,84.90
2019-03-29T05:45:38.225Z,84.20
2019-03-29T05:50:43.067Z,84.30
2019-03-29T05:55:48.390Z,84.50
2019-03-29T06:00:54.370Z,84.60
2019-03-29T06:05:59.649Z,84.50
2019-03-29T06:11:04.698Z,84.60
2019-03-29T06:16:10.362Z,84.40
2019-03-29T06:21:15.389Z,83.70
2019-03-29T06:26:20.331Z,83.40
2019-03-29T06:31:25.178Z,83.20
2019-03-29T06:36:32.094Z,83.00
2019-03-29T06:41:36.838Z,82.40
2019-03-29T06:46:41.885Z,82.10
2019-03-29T06:51:46.613Z,82.00
2019-03-29T06:56:51.374Z,82.10
2019-03-29T07:01:56.290Z,82.40
2019-03-29T07:07:01.150Z,82.00
2019-03-29T07:12:06.209Z,82.30
2019-03-29T07:17:12.488Z,81.50
2019-03-29T07:22:17.230Z,81.80
2019-03-29T07:27:21.971Z,81.50
2019-03-29T07:32:26.715Z,81.90
2019-03-29T07:37:31.747Z,82.40
2019-03-29T07:42:38.655Z,82.20
2019-03-29T07:47:43.402Z,81.20
2019-03-29T07:52:48.142Z,81.80
2019-03-29T07:57:52.882Z,81.90
2019-03-29T08:02:57.624Z,80.60
2019-03-29T08:08:02.673Z,79.00
2019-03-29T08:13:07.420Z,79.10
2019-03-29T08:18:12.780Z,80.00
2019-03-29T08:23:17.820Z,79.50
2019-03-29T08:28:22.670Z,78.90
2019-03-29T08:33:27.612Z,79.60
2019-03-29T08:38:32.430Z,77.90
2019-03-29T08:43:37.285Z,77.50
2019-03-29T08:48:42.452Z,77.00
2019-03-29T08:53:47.202Z,75.10
2019-03-29T08:58:52.244Z,74.70
2019-03-29T09:04:05.154Z,75.50
2019-03-29T09:09:05.286Z,74.90
2019-03-29T09:14:10.463Z,74.00
2019-03-29T09:19:15.820Z,74.30
2019-03-29T09:24:22.369Z,76.40
2019-03-29T09:29:27.026Z,75.70
2019-03-29T09:34:31.891Z,75.10
2019-03-29T09:39:36.609Z,73.60
2019-03-29T09:44:42.908Z,72.50
2019-03-29T09:49:47.963Z,71.50
2019-03-29T09:54:54.180Z,72.10
2019-03-29T09:59:58.979Z,72.00
2019-03-29T10:05:04.029Z,71.60
2019-03-29T10:10:09.169Z,72.30
2019-03-29T10:15:14.127Z,71.70
2019-03-29T10:20:20.404Z,71.00
2019-03-29T10:25:25.457Z,71.40
2019-03-29T10:30:38.490Z,70.40
2019-03-29T10:35:52.141Z,69.10
2019-03-29T10:40:49.895Z,69.30
2019-03-29T10:45:55.176Z,68.90
2019-03-29T10:51:00.223Z,67.20
2019-03-29T10:56:05.252Z,66.60
2019-03-29T11:01:10.091Z,66.10
2019-03-29T11:06:15.063Z,66.70
2019-03-29T11:11:19.819Z,67.60
2019-03-29T11:16:25.777Z,64.30
2019-03-29T11:21:31.133Z,63.60
2019-03-29T11:26:36.182Z,64.00
2019-03-29T11:31:41.231Z,65.20
2019-03-29T11:36:45.974Z,64.60
2019-03-29T11:41:50.717Z,65.00
2019-03-29T11:46:55.764Z,65.60
2019-03-29T11:52:01.126Z,65.40
2019-03-29T11:57:06.150Z,66.00
2019-03-29T12:02:11.220Z,65.20
2019-03-29T12:07:16.250Z,64.50
2019-03-29T12:12:21.317Z,64.50
2019-03-29T12:17:26.052Z,64.30
2019-03-29T12:22:30.883Z,63.80
2019-03-29T12:27:35.855Z,64.00
2019-03-29T12:32:40.903Z,63.60
2019-03-29T12:37:46.240Z,64.30
2019-03-29T12:42:51.312Z,62.90
2019-03-29T12:47:56.040Z,61.00
2019-03-29T12:53:00.789Z,61.90
2019-03-29T12:58:05.680Z,63.40
2019-03-29T13:03:10.454Z,63.80
2019-03-29T13:08:16.550Z,62.30
2019-03-29T13:13:21.294Z,61.70
2019-03-29T13:18:26.343Z,60.60
2019-03-29T13:23:32.007Z,61.70
2019-03-29T13:28:36.729Z,61.60
2019-03-29T13:33:42.720Z,61.70
2019-03-29T13:38:47.465Z,60.70
2019-03-29T13:43:52.183Z,61.60
2019-03-29T13:48:57.252Z,61.80
2019-03-29T13:54:02.283Z,61.30
2019-03-29T13:59:07.332Z,61.20
2019-03-29T14:04:12.070Z,61.60
2019-03-29T14:09:16.836Z,60.00
2019-03-29T14:14:21.582Z,62.50
2019-03-29T14:19:26.325Z,62.70
2019-03-29T14:24:31.448Z,61.50
2019-03-29T14:29:36.191Z,63.50
2019-03-29T14:34:41.043Z,62.30
2019-03-29T14:39:45.877Z,62.50
2019-03-29T14:44:52.689Z,62.60
2019-03-29T14:49:57.227Z,63.90
2019-03-29T14:55:03.815Z,63.00
2019-03-29T15:00:11.627Z,63.80
2019-03-29T15:05:17.989Z,62.80
2019-03-29T15:10:27.549Z,63.90
2019-03-29T15:15:32.612Z,63.50
2019-03-29T15:20:37.338Z,64.30
2019-03-29T15:25:43.022Z,64.90
2019-03-29T15:30:48.070Z,64.50
2019-03-29T15:35:55.557Z,63.70
2019-03-29T15:41:01.851Z,64.10
2019-03-29T15:46:06.808Z,62.70
2019-03-29T15:51:11.622Z,63.50
2019-03-29T15:56:18.535Z,64.20
2019-03-29T16:01:23.866Z,63.70
2019-03-29T16:06:28.635Z,63.60
2019-03-29T16:11:33.685Z,62.90
2019-03-29T16:16:38.732Z,63.10
2019-03-29T16:21:43.550Z,63.60
2019-03-29T16:26:48.532Z,64.10
2019-03-29T16:31:53.249Z,64.40
2019-03-29T16:36:57.982Z,64.70
2019-03-29T16:42:03.059Z,65.20
2019-03-29T16:47:08.106Z,65.10
2019-03-29T16:52:13.036Z,65.60
2019-03-29T16:57:17.899Z,66.30
2019-03-29T17:02:22.619Z,66.10
2019-03-29T17:07:27.689Z,66.40
2019-03-29T17:12:32.431Z,66.40
2019-03-29T17:17:37.487Z,67.00
2019-03-29T17:22:43.362Z,67.30
2019-03-29T17:27:52.007Z,68.30
2019-03-29T17:32:55.392Z,68.00
2019-03-29T17:38:00.135Z,68.30
2019-03-29T17:43:05.491Z,68.80
2019-03-29T17:48:11.540Z,69.50
2019-03-29T17:53:16.513Z,69.80
2019-03-29T17:58:21.560Z,70.30
2019-03-29T18:03:26.614Z,69.90
2019-03-29T18:08:31.427Z,70.00
2019-03-29T18:13:36.402Z,70.50
2019-03-29T18:18:41.231Z,70.80
2019-03-29T18:23:46.490Z,71.20
2019-03-29T18:28:51.548Z,71.40
2019-03-29T18:33:56.303Z,72.30
2019-03-29T18:39:01.339Z,73.30
2019-03-29T18:44:07.312Z,73.10
2019-03-29T18:49:12.360Z,72.20
2019-03-29T18:54:17.184Z,71.80
2019-03-29T18:59:22.154Z,71.40
2019-03-29T19:04:27.200Z,72.00
2019-03-29T19:09:32.251Z,72.70
2019-03-29T19:14:36.997Z,73.30
2019-03-29T19:19:41.816Z,73.60
2019-03-29T19:24:47.132Z,73.70
2019-03-29T19:29:52.140Z,74.90
2019-03-29T19:34:56.882Z,75.60
2019-03-29T19:40:01.932Z,75.90
2019-03-29T19:45:10.361Z,76.50
2019-03-29T19:50:16.024Z,77.30
2019-03-29T19:55:22.001Z,77.30
2019-03-29T20:00:38.120Z,77.60
2019-03-29T20:05:43.153Z,76.60
2019-03-29T20:10:48.508Z,76.80
2019-03-29T20:15:53.558Z,76.70
2019-03-29T20:20:58.607Z,76.30
2019-03-29T20:26:03.352Z,76.20
2019-03-29T20:31:08.397Z,76.50
2019-03-29T20:36:13.144Z,76.30
2019-03-29T20:41:18.188Z,76.00
2019-03-29T20:46:22.906Z,75.40
2019-03-29T20:51:27.979Z,75.90
2019-03-29T20:56:33.036Z,76.30
2019-03-29T21:01:37.776Z,76.00
2019-03-29T21:06:42.514Z,75.20
2019-03-29T21:11:47.539Z,75.40
2019-03-29T21:16:52.303Z,75.30
2019-03-29T21:21:57.363Z,75.90
2019-03-29T21:27:02.096Z,76.30
2019-03-29T21:32:06.914Z,75.60
2019-03-29T21:37:11.889Z,76.80
2019-03-29T21:42:16.712Z,76.20
2019-03-29T21:47:21.679Z,76.30
2019-03-29T21:52:26.498Z,75.50
2019-03-29T21:57:31.468Z,75.50
2019-03-29T22:02:36.521Z,75.10
2019-03-29T22:07:41.566Z,75.50
2019-03-29T22:12:46.309Z,74.90
2019-03-29T22:17:51.136Z,75.00
2019-03-29T22:22:56.099Z,74.80
2019-03-29T22:28:00.846Z,74.90
2019-03-29T22:33:05.891Z,75.40
2019-03-29T22:38:10.941Z,74.90
2019-03-29T22:43:15.609Z,75.40
2019-03-29T22:48:20.425Z,74.70
2019-03-29T22:53:25.320Z,75.10
2019-03-29T22:58:30.216Z,75.20
2019-03-29T23:03:34.956Z,75.80
2019-03-29T23:08:40.703Z,77.00
2019-03-29T23:13:46.595Z,77.60
2019-03-29T23:19:05.511Z,78.10
2019-03-29T23:23:57.721Z,78.20
2019-03-29T23:29:02.643Z,79.20
2019-03-29T23:34:07.406Z,79.20
2019-03-29T23:39:12.455Z,79.90
2019-03-29T23:44:17.504Z,80.70
2019-03-29T23:49:22.533Z,81.60
2019-03-29T23:54:27.203Z,82.00
2019-03-29T23:59:31.918Z,82.50
